Terminal Aerodrome Forecast
Issued by NWS

Home | Current Version | Previous Version | Text Only | Print | Product List | Glossary On
Versions: 1 2 3 4 5 6 7 8 9 10 11 12 13 14 15
000
FTUS45 KGGW 152333 AAB
TAFSDY
TAF AMD
KSDY 152333Z 1600/1624 28011KT P6SM OVC110
     FM160600 31009KT P6SM OVC025
     FM160800 30010KT P6SM BKN060=

USA.gov is the U.S. government's official web portal to all federal, state and local government web resources and services.